createdAt,value
2023-05-21T00:00:23.414Z,82.56
2023-05-21T00:05:47.477Z,82.99
2023-05-21T00:10:50.973Z,82.67
2023-05-21T00:15:54.298Z,82.39
2023-05-21T00:20:58.182Z,82.04
2023-05-21T00:26:01.554Z,81.35
2023-05-21T00:31:06.732Z,80.80
2023-05-21T00:36:10.644Z,80.49
2023-05-21T00:41:14.111Z,80.63
2023-05-21T00:46:23.549Z,80.86
2023-05-21T00:51:30.554Z,81.38
2023-05-21T00:56:33.880Z,81.39
2023-05-21T01:01:38.477Z,81.80
2023-05-21T01:06:43.493Z,81.77
2023-05-21T01:11:50.384Z,81.91
2023-05-21T01:16:55.039Z,80.77
2023-05-21T01:22:05.345Z,81.05
2023-05-21T01:27:10.740Z,80.62
2023-05-21T01:32:26.923Z,80.31
2023-05-21T01:37:47.540Z,80.13
2023-05-21T01:42:51.779Z,79.51
2023-05-21T01:47:56.762Z,80.06
2023-05-21T01:53:04.222Z,80.03
2023-05-21T01:58:08.623Z,79.92
2023-05-21T02:03:17.655Z,79.89
2023-05-21T02:08:21.642Z,80.09
2023-05-21T02:13:26.747Z,79.90
2023-05-21T02:18:30.554Z,79.72
2023-05-21T02:23:33.833Z,79.47
2023-05-21T02:28:37.241Z,78.91
2023-05-21T02:33:42.325Z,79.58
2023-05-21T02:38:45.788Z,78.73
2023-05-21T02:43:49.122Z,78.66
2023-05-21T02:48:52.498Z,78.84
2023-05-21T02:53:55.835Z,78.95
2023-05-21T02:58:59.189Z,77.83
2023-05-21T03:04:02.507Z,77.51
2023-05-21T03:09:06.878Z,76.79
2023-05-21T03:14:10.302Z,76.12
2023-05-21T03:19:13.977Z,74.75
2023-05-21T03:24:17.693Z,71.94
2023-05-21T03:29:21.072Z,67.82
2023-05-21T03:34:24.595Z,61.66
2023-05-21T03:39:27.924Z,56.01
2023-05-21T03:44:32.820Z,51.12
2023-05-21T03:49:36.078Z,47.41
2023-05-21T03:54:39.348Z,46.66
2023-05-21T03:59:42.615Z,44.40
2023-05-21T04:04:47.324Z,41.30
2023-05-21T04:09:50.840Z,42.38
2023-05-21T04:14:54.227Z,39.32
2023-05-21T04:19:57.518Z,35.29
2023-05-21T04:25:00.834Z,36.01
2023-05-21T04:30:04.930Z,35.18
2023-05-21T04:35:08.965Z,33.37
2023-05-21T04:40:18.522Z,29.48
2023-05-21T04:45:25.086Z,28.31
2023-05-21T04:50:31.024Z,28.22
2023-05-21T04:55:36.773Z,27.51
2023-05-21T05:00:42.493Z,27.67
2023-05-21T05:05:46.644Z,28.15
2023-05-21T05:10:50.049Z,27.41
2023-05-21T05:15:54.871Z,27.84
2023-05-21T05:20:58.292Z,26.54
2023-05-21T05:26:01.592Z,25.12
2023-05-21T05:31:05.547Z,25.41
2023-05-21T05:36:09.023Z,24.59
2023-05-21T05:41:12.381Z,23.82
2023-05-21T05:46:16.624Z,23.82
2023-05-21T05:51:23.887Z,23.92
2023-05-21T05:56:27.391Z,24.42
2023-05-21T06:01:32.856Z,24.99
2023-05-21T06:06:37.277Z,23.53
2023-05-21T06:11:40.703Z,23.75
2023-05-21T06:16:44.009Z,23.65
2023-05-21T06:21:47.552Z,22.96
2023-05-21T06:26:50.986Z,22.36
2023-05-21T06:31:54.461Z,21.96
2023-05-21T06:36:57.841Z,22.69
2023-05-21T06:42:02.397Z,22.60
2023-05-21T06:47:06.029Z,23.23
2023-05-21T06:52:09.427Z,22.52
2023-05-21T06:57:15.630Z,22.09
2023-05-21T07:02:19.425Z,21.28
2023-05-21T07:07:22.926Z,20.21
2023-05-21T07:12:27.385Z,20.83
2023-05-21T07:17:31.006Z,20.39
2023-05-21T07:22:35.051Z,20.65
2023-05-21T07:27:38.506Z,18.82
2023-05-21T07:32:42.100Z,18.60
2023-05-21T07:37:46.700Z,19.52
2023-05-21T07:42:50.193Z,18.99
2023-05-21T07:47:53.710Z,19.45
2023-05-21T07:52:58.279Z,18.90
2023-05-21T07:58:01.974Z,18.50
2023-05-21T08:03:05.881Z,18.75
2023-05-21T08:08:09.308Z,18.27
2023-05-21T08:13:17.253Z,18.29
2023-05-21T08:18:20.854Z,19.05
2023-05-21T08:23:24.741Z,18.25
2023-05-21T08:28:29.374Z,18.66
2023-05-21T08:33:39.559Z,18.16
2023-05-21T08:38:42.972Z,17.80
2023-05-21T08:43:50.179Z,18.08
2023-05-21T08:48:56.404Z,18.06
2023-05-21T08:54:03.044Z,18.82
2023-05-21T08:59:07.639Z,18.22
2023-05-21T09:09:33.146Z,18.65
2023-05-21T09:14:38.514Z,17.36
2023-05-21T09:20:17.821Z,17.71
2023-05-21T09:25:28.454Z,17.79
2023-05-21T09:30:35.019Z,19.31
2023-05-21T09:35:47.349Z,18.69
2023-05-21T09:40:51.089Z,18.12
2023-05-21T09:45:56.560Z,18.58
2023-05-21T09:51:20.852Z,19.90
2023-05-21T09:56:26.110Z,21.43
2023-05-21T10:01:33.952Z,22.74
